sensor_id;sensor_type;location;lat;lon;timestamp;P1;durP1;ratioP1;P2;durP2;ratioP2
3689;SDS011;1861;50.240;8.596;2022-10-16T00:00:57;3.07;;;0.80;;
3689;SDS011;1861;50.240;8.596;2022-10-16T00:03:25;7.73;;;1.00;;
3689;SDS011;1861;50.240;8.596;2022-10-16T00:05:58;2.47;;;0.93;;
3689;SDS011;1861;50.240;8.596;2022-10-16T00:08:27;1.67;;;1.07;;
3689;SDS011;1861;50.240;8.596;2022-10-16T00:11:00;1.07;;;0.90;;
3689;SDS011;1861;50.240;8.596;2022-10-16T00:13:30;2.73;;;0.80;;
3689;SDS011;1861;50.240;8.596;2022-10-16T00:15:59;0.80;;;0.80;;
3689;SDS011;1861;50.240;8.596;2022-10-16T00:18:28;4.30;;;0.80;;
3689;SDS011;1861;50.240;8.596;2022-10-16T00:21:01;1.10;;;1.00;;
3689;SDS011;1861;50.240;8.596;2022-10-16T00:23:50;1.23;;;1.00;;
3689;SDS011;1861;50.240;8.596;2022-10-16T00:26:20;1.10;;;0.90;;
3689;SDS011;1861;50.240;8.596;2022-10-16T00:28:49;2.23;;;1.10;;
3689;SDS011;1861;50.240;8.596;2022-10-16T00:31:19;7.13;;;1.40;;
3689;SDS011;1861;50.240;8.596;2022-10-16T00:33:48;1.17;;;0.97;;
3689;SDS011;1861;50.240;8.596;2022-10-16T00:36:18;1.70;;;1.20;;
3689;SDS011;1861;50.240;8.596;2022-10-16T00:38:49;0.90;;;0.90;;
3689;SDS011;1861;50.240;8.596;2022-10-16T00:41:21;2.23;;;1.10;;
3689;SDS011;1861;50.240;8.596;2022-10-16T00:43:51;1.20;;;1.00;;
3689;SDS011;1861;50.240;8.596;2022-10-16T00:46:21;7.03;;;1.10;;
3689;SDS011;1861;50.240;8.596;2022-10-16T00:48:52;1.03;;;0.93;;
3689;SDS011;1861;50.240;8.596;2022-10-16T00:51:25;2.37;;;0.90;;
3689;SDS011;1861;50.240;8.596;2022-10-16T00:53:58;2.33;;;0.83;;
3689;SDS011;1861;50.240;8.596;2022-10-16T00:56:28;1.07;;;0.97;;
3689;SDS011;1861;50.240;8.596;2022-10-16T00:58:56;1.20;;;1.10;;
3689;SDS011;1861;50.240;8.596;2022-10-16T01:01:25;1.10;;;1.00;;
3689;SDS011;1861;50.240;8.596;2022-10-16T01:03:53;5.97;;;1.33;;
3689;SDS011;1861;50.240;8.596;2022-10-16T01:06:23;1.30;;;1.03;;
3689;SDS011;1861;50.240;8.596;2022-10-16T01:09:02;1.07;;;0.97;;
3689;SDS011;1861;50.240;8.596;2022-10-16T01:11:41;2.13;;;1.03;;
3689;SDS011;1861;50.240;8.596;2022-10-16T01:14:23;3.00;;;1.13;;
3689;SDS011;1861;50.240;8.596;2022-10-16T01:16:57;3.90;;;1.07;;
3689;SDS011;1861;50.240;8.596;2022-10-16T01:19:36;6.50;;;1.13;;
3689;SDS011;1861;50.240;8.596;2022-10-16T01:22:11;3.20;;;1.00;;
3689;SDS011;1861;50.240;8.596;2022-10-16T01:24:41;4.10;;;1.20;;
3689;SDS011;1861;50.240;8.596;2022-10-16T01:27:17;1.67;;;1.10;;
3689;SDS011;1861;50.240;8.596;2022-10-16T01:29:50;1.43;;;1.07;;
3689;SDS011;1861;50.240;8.596;2022-10-16T01:32:23;2.50;;;1.30;;
3689;SDS011;1861;50.240;8.596;2022-10-16T01:34:57;5.10;;;1.60;;
3689;SDS011;1861;50.240;8.596;2022-10-16T01:37:30;2.13;;;1.90;;
3689;SDS011;1861;50.240;8.596;2022-10-16T01:40:03;4.10;;;2.50;;
3689;SDS011;1861;50.240;8.596;2022-10-16T01:42:37;3.60;;;2.23;;
3689;SDS011;1861;50.240;8.596;2022-10-16T01:45:10;3.53;;;2.47;;
3689;SDS011;1861;50.240;8.596;2022-10-16T01:47:41;7.00;;;2.53;;
3689;SDS011;1861;50.240;8.596;2022-10-16T01:50:10;5.00;;;3.20;;
3689;SDS011;1861;50.240;8.596;2022-10-16T01:52:42;4.00;;;3.00;;
3689;SDS011;1861;50.240;8.596;2022-10-16T01:55:16;4.17;;;3.43;;
3689;SDS011;1861;50.240;8.596;2022-10-16T01:57:49;7.77;;;3.53;;
3689;SDS011;1861;50.240;8.596;2022-10-16T02:00:19;5.30;;;3.60;;
3689;SDS011;1861;50.240;8.596;2022-10-16T02:02:50;9.07;;;3.93;;
3689;SDS011;1861;50.240;8.596;2022-10-16T02:05:22;15.67;;;3.90;;
3689;SDS011;1861;50.240;8.596;2022-10-16T02:07:54;5.40;;;4.10;;
3689;SDS011;1861;50.240;8.596;2022-10-16T02:10:25;8.43;;;4.17;;
3689;SDS011;1861;50.240;8.596;2022-10-16T02:13:00;7.80;;;4.87;;
3689;SDS011;1861;50.240;8.596;2022-10-16T02:15:33;6.50;;;4.57;;
3689;SDS011;1861;50.240;8.596;2022-10-16T02:18:01;7.40;;;5.30;;
3689;SDS011;1861;50.240;8.596;2022-10-16T02:20:32;9.17;;;5.53;;
3689;SDS011;1861;50.240;8.596;2022-10-16T02:23:03;8.40;;;5.07;;
3689;SDS011;1861;50.240;8.596;2022-10-16T02:25:39;6.40;;;4.67;;
3689;SDS011;1861;50.240;8.596;2022-10-16T02:28:12;8.70;;;4.90;;
3689;SDS011;1861;50.240;8.596;2022-10-16T02:30:44;8.93;;;5.60;;
3689;SDS011;1861;50.240;8.596;2022-10-16T02:33:15;8.23;;;4.97;;
3689;SDS011;1861;50.240;8.596;2022-10-16T02:35:46;6.90;;;4.60;;
3689;SDS011;1861;50.240;8.596;2022-10-16T02:38:17;7.83;;;4.77;;
3689;SDS011;1861;50.240;8.596;2022-10-16T02:40:46;7.20;;;4.80;;
3689;SDS011;1861;50.240;8.596;2022-10-16T02:43:15;9.00;;;4.97;;
3689;SDS011;1861;50.240;8.596;2022-10-16T02:45:44;6.00;;;4.60;;
3689;SDS011;1861;50.240;8.596;2022-10-16T02:48:12;5.37;;;4.17;;
3689;SDS011;1861;50.240;8.596;2022-10-16T02:50:41;4.80;;;3.83;;
3689;SDS011;1861;50.240;8.596;2022-10-16T02:53:09;3.93;;;3.40;;
3689;SDS011;1861;50.240;8.596;2022-10-16T02:55:37;6.73;;;4.50;;
3689;SDS011;1861;50.240;8.596;2022-10-16T02:58:05;6.73;;;4.43;;
3689;SDS011;1861;50.240;8.596;2022-10-16T03:00:34;5.23;;;4.03;;
3689;SDS011;1861;50.240;8.596;2022-10-16T03:03:02;4.60;;;4.10;;
3689;SDS011;1861;50.240;8.596;2022-10-16T03:05:30;5.00;;;3.87;;
3689;SDS011;1861;50.240;8.596;2022-10-16T03:07:58;4.40;;;4.00;;
3689;SDS011;1861;50.240;8.596;2022-10-16T03:10:27;4.80;;;3.90;;
3689;SDS011;1861;50.240;8.596;2022-10-16T03:12:55;5.33;;;4.20;;
3689;SDS011;1861;50.240;8.596;2022-10-16T03:15:23;4.50;;;4.10;;
3689;SDS011;1861;50.240;8.596;2022-10-16T03:17:53;10.77;;;4.43;;
3689;SDS011;1861;50.240;8.596;2022-10-16T03:20:21;3.67;;;3.33;;
3689;SDS011;1861;50.240;8.596;2022-10-16T03:22:49;4.10;;;3.47;;
3689;SDS011;1861;50.240;8.596;2022-10-16T03:25:17;4.37;;;3.97;;
3689;SDS011;1861;50.240;8.596;2022-10-16T03:27:46;6.47;;;3.67;;
3689;SDS011;1861;50.240;8.596;2022-10-16T03:30:14;5.03;;;4.00;;
3689;SDS011;1861;50.240;8.596;2022-10-16T03:32:43;4.57;;;3.70;;
3689;SDS011;1861;50.240;8.596;2022-10-16T03:35:13;4.63;;;3.40;;
3689;SDS011;1861;50.240;8.596;2022-10-16T03:37:41;5.10;;;3.47;;
3689;SDS011;1861;50.240;8.596;2022-10-16T03:40:10;7.87;;;5.13;;
3689;SDS011;1861;50.240;8.596;2022-10-16T03:42:38;3.90;;;3.50;;
3689;SDS011;1861;50.240;8.596;2022-10-16T03:45:06;4.40;;;3.33;;
3689;SDS011;1861;50.240;8.596;2022-10-16T03:47:35;5.20;;;3.87;;
3689;SDS011;1861;50.240;8.596;2022-10-16T03:50:03;4.40;;;3.70;;
3689;SDS011;1861;50.240;8.596;2022-10-16T03:52:34;5.47;;;3.93;;
3689;SDS011;1861;50.240;8.596;2022-10-16T03:55:02;3.90;;;3.60;;
3689;SDS011;1861;50.240;8.596;2022-10-16T03:57:31;4.37;;;3.57;;
3689;SDS011;1861;50.240;8.596;2022-10-16T03:59:59;3.63;;;3.10;;
3689;SDS011;1861;50.240;8.596;2022-10-16T04:02:37;3.50;;;3.00;;
3689;SDS011;1861;50.240;8.596;2022-10-16T04:05:05;3.40;;;2.87;;
3689;SDS011;1861;50.240;8.596;2022-10-16T04:07:35;3.50;;;2.63;;
3689;SDS011;1861;50.240;8.596;2022-10-16T04:10:04;4.20;;;3.23;;
3689;SDS011;1861;50.240;8.596;2022-10-16T04:12:33;2.93;;;2.63;;
3689;SDS011;1861;50.240;8.596;2022-10-16T04:15:01;4.60;;;3.07;;
3689;SDS011;1861;50.240;8.596;2022-10-16T04:17:29;3.80;;;3.30;;
3689;SDS011;1861;50.240;8.596;2022-10-16T04:19:57;3.50;;;3.20;;
3689;SDS011;1861;50.240;8.596;2022-10-16T04:22:25;4.63;;;2.93;;
3689;SDS011;1861;50.240;8.596;2022-10-16T04:24:59;3.03;;;2.67;;
3689;SDS011;1861;50.240;8.596;2022-10-16T04:27:27;3.40;;;3.00;;
3689;SDS011;1861;50.240;8.596;2022-10-16T04:29:57;5.10;;;2.77;;
3689;SDS011;1861;50.240;8.596;2022-10-16T04:32:25;8.57;;;3.13;;
3689;SDS011;1861;50.240;8.596;2022-10-16T04:34:54;3.47;;;3.17;;
3689;SDS011;1861;50.240;8.596;2022-10-16T04:37:23;3.27;;;3.00;;
3689;SDS011;1861;50.240;8.596;2022-10-16T04:39:52;3.20;;;2.70;;
3689;SDS011;1861;50.240;8.596;2022-10-16T04:42:22;4.87;;;2.53;;
3689;SDS011;1861;50.240;8.596;2022-10-16T04:44:51;3.30;;;3.00;;
3689;SDS011;1861;50.240;8.596;2022-10-16T04:47:19;3.37;;;3.07;;
3689;SDS011;1861;50.240;8.596;2022-10-16T04:49:47;4.23;;;3.10;;
3689;SDS011;1861;50.240;8.596;2022-10-16T04:52:15;8.63;;;3.00;;
3689;SDS011;1861;50.240;8.596;2022-10-16T04:54:43;7.23;;;3.20;;
3689;SDS011;1861;50.240;8.596;2022-10-16T04:57:11;4.60;;;3.00;;
3689;SDS011;1861;50.240;8.596;2022-10-16T04:59:41;3.47;;;3.17;;
3689;SDS011;1861;50.240;8.596;2022-10-16T05:02:09;6.17;;;3.90;;
3689;SDS011;1861;50.240;8.596;2022-10-16T05:04:37;4.13;;;3.17;;
3689;SDS011;1861;50.240;8.596;2022-10-16T05:07:05;3.60;;;3.17;;
3689;SDS011;1861;50.240;8.596;2022-10-16T05:09:36;3.00;;;2.80;;
3689;SDS011;1861;50.240;8.596;2022-10-16T05:12:04;3.83;;;2.83;;
3689;SDS011;1861;50.240;8.596;2022-10-16T05:14:32;4.10;;;3.20;;
3689;SDS011;1861;50.240;8.596;2022-10-16T05:17:02;2.80;;;2.60;;
3689;SDS011;1861;50.240;8.596;2022-10-16T05:19:30;3.00;;;1.93;;
3689;SDS011;1861;50.240;8.596;2022-10-16T05:21:58;2.43;;;2.23;;
3689;SDS011;1861;50.240;8.596;2022-10-16T05:24:26;1.97;;;1.87;;
3689;SDS011;1861;50.240;8.596;2022-10-16T05:26:54;6.00;;;2.40;;
3689;SDS011;1861;50.240;8.596;2022-10-16T05:29:22;1.87;;;1.77;;
3689;SDS011;1861;50.240;8.596;2022-10-16T05:31:51;3.07;;;2.17;;
3689;SDS011;1861;50.240;8.596;2022-10-16T05:34:21;2.90;;;2.03;;
3689;SDS011;1861;50.240;8.596;2022-10-16T05:36:49;3.03;;;1.90;;
3689;SDS011;1861;50.240;8.596;2022-10-16T05:39:17;3.23;;;1.83;;
3689;SDS011;1861;50.240;8.596;2022-10-16T05:41:46;4.70;;;2.00;;
3689;SDS011;1861;50.240;8.596;2022-10-16T05:44:14;3.23;;;1.80;;
3689;SDS011;1861;50.240;8.596;2022-10-16T05:46:42;3.10;;;1.93;;
3689;SDS011;1861;50.240;8.596;2022-10-16T05:49:10;5.50;;;2.20;;
3689;SDS011;1861;50.240;8.596;2022-10-16T05:51:39;2.73;;;2.47;;
3689;SDS011;1861;50.240;8.596;2022-10-16T05:54:08;2.60;;;2.20;;
3689;SDS011;1861;50.240;8.596;2022-10-16T05:56:36;7.47;;;2.10;;
3689;SDS011;1861;50.240;8.596;2022-10-16T05:59:05;2.07;;;1.90;;
3689;SDS011;1861;50.240;8.596;2022-10-16T06:01:33;2.20;;;2.00;;
3689;SDS011;1861;50.240;8.596;2022-10-16T06:04:01;5.90;;;1.70;;
3689;SDS011;1861;50.240;8.596;2022-10-16T06:06:30;2.30;;;2.10;;
3689;SDS011;1861;50.240;8.596;2022-10-16T06:09:00;2.60;;;1.90;;
3689;SDS011;1861;50.240;8.596;2022-10-16T06:11:28;2.70;;;1.80;;
3689;SDS011;1861;50.240;8.596;2022-10-16T06:13:58;1.83;;;1.60;;
3689;SDS011;1861;50.240;8.596;2022-10-16T06:16:29;5.70;;;2.00;;
3689;SDS011;1861;50.240;8.596;2022-10-16T06:18:57;3.20;;;2.20;;
3689;SDS011;1861;50.240;8.596;2022-10-16T06:21:26;2.00;;;1.90;;
3689;SDS011;1861;50.240;8.596;2022-10-16T06:23:55;6.10;;;2.50;;
3689;SDS011;1861;50.240;8.596;2022-10-16T06:26:26;8.40;;;3.90;;
3689;SDS011;1861;50.240;8.596;2022-10-16T06:28:56;4.90;;;2.33;;
3689;SDS011;1861;50.240;8.596;2022-10-16T06:31:26;3.50;;;2.00;;
3689;SDS011;1861;50.240;8.596;2022-10-16T06:33:57;2.80;;;2.50;;
3689;SDS011;1861;50.240;8.596;2022-10-16T06:36:25;2.67;;;1.83;;
3689;SDS011;1861;50.240;8.596;2022-10-16T06:38:53;1.90;;;1.80;;
3689;SDS011;1861;50.240;8.596;2022-10-16T06:41:22;1.97;;;1.80;;
3689;SDS011;1861;50.240;8.596;2022-10-16T06:43:51;1.77;;;1.60;;
3689;SDS011;1861;50.240;8.596;2022-10-16T06:46:20;2.10;;;1.90;;
3689;SDS011;1861;50.240;8.596;2022-10-16T06:48:50;2.20;;;1.87;;
3689;SDS011;1861;50.240;8.596;2022-10-16T06:51:19;6.90;;;1.50;;
3689;SDS011;1861;50.240;8.596;2022-10-16T06:53:48;3.27;;;2.00;;
3689;SDS011;1861;50.240;8.596;2022-10-16T06:56:33;3.50;;;2.07;;
3689;SDS011;1861;50.240;8.596;2022-10-16T06:59:03;2.50;;;1.50;;
3689;SDS011;1861;50.240;8.596;2022-10-16T07:01:31;2.30;;;1.83;;
3689;SDS011;1861;50.240;8.596;2022-10-16T07:04:00;1.70;;;1.60;;
3689;SDS011;1861;50.240;8.596;2022-10-16T07:06:30;2.20;;;1.77;;
3689;SDS011;1861;50.240;8.596;2022-10-16T07:09:01;3.27;;;1.77;;
3689;SDS011;1861;50.240;8.596;2022-10-16T07:11:30;2.23;;;1.80;;
3689;SDS011;1861;50.240;8.596;2022-10-16T07:13:59;1.97;;;1.77;;
3689;SDS011;1861;50.240;8.596;2022-10-16T07:16:29;2.80;;;1.70;;
3689;SDS011;1861;50.240;8.596;2022-10-16T07:18:58;1.60;;;1.43;;
3689;SDS011;1861;50.240;8.596;2022-10-16T07:21:29;3.00;;;1.47;;
3689;SDS011;1861;50.240;8.596;2022-10-16T07:24:02;3.97;;;1.87;;
3689;SDS011;1861;50.240;8.596;2022-10-16T07:26:32;2.13;;;1.80;;
3689;SDS011;1861;50.240;8.596;2022-10-16T07:29:02;6.17;;;1.93;;
3689;SDS011;1861;50.240;8.596;2022-10-16T07:31:32;1.67;;;1.57;;
3689;SDS011;1861;50.240;8.596;2022-10-16T07:34:00;3.30;;;1.70;;
3689;SDS011;1861;50.240;8.596;2022-10-16T07:36:28;1.57;;;1.47;;
3689;SDS011;1861;50.240;8.596;2022-10-16T07:38:56;1.80;;;1.40;;
3689;SDS011;1861;50.240;8.596;2022-10-16T07:41:26;4.33;;;2.20;;
3689;SDS011;1861;50.240;8.596;2022-10-16T07:43:55;2.10;;;1.93;;
3689;SDS011;1861;50.240;8.596;2022-10-16T07:46:26;2.13;;;1.93;;
3689;SDS011;1861;50.240;8.596;2022-10-16T07:48:56;2.00;;;1.40;;
3689;SDS011;1861;50.240;8.596;2022-10-16T07:51:24;2.13;;;1.63;;
3689;SDS011;1861;50.240;8.596;2022-10-16T07:53:54;2.90;;;1.63;;
3689;SDS011;1861;50.240;8.596;2022-10-16T07:56:22;2.37;;;2.00;;
3689;SDS011;1861;50.240;8.596;2022-10-16T07:58:50;2.80;;;1.70;;
3689;SDS011;1861;50.240;8.596;2022-10-16T08:01:19;3.13;;;2.17;;
3689;SDS011;1861;50.240;8.596;2022-10-16T08:03:48;4.00;;;2.53;;
3689;SDS011;1861;50.240;8.596;2022-10-16T08:06:19;1.87;;;1.70;;
3689;SDS011;1861;50.240;8.596;2022-10-16T08:08:53;4.63;;;1.73;;
3689;SDS011;1861;50.240;8.596;2022-10-16T08:11:22;6.83;;;2.07;;
3689;SDS011;1861;50.240;8.596;2022-10-16T08:13:50;2.37;;;2.17;;
3689;SDS011;1861;50.240;8.596;2022-10-16T08:16:18;5.63;;;2.30;;
3689;SDS011;1861;50.240;8.596;2022-10-16T08:18:47;7.17;;;2.10;;
3689;SDS011;1861;50.240;8.596;2022-10-16T08:21:20;3.57;;;2.30;;
3689;SDS011;1861;50.240;8.596;2022-10-16T08:23:49;2.60;;;1.83;;
3689;SDS011;1861;50.240;8.596;2022-10-16T08:26:24;2.60;;;1.83;;
3689;SDS011;1861;50.240;8.596;2022-10-16T08:28:53;4.30;;;2.00;;
3689;SDS011;1861;50.240;8.596;2022-10-16T08:31:22;6.20;;;2.63;;
3689;SDS011;1861;50.240;8.596;2022-10-16T08:33:52;1.93;;;1.73;;
3689;SDS011;1861;50.240;8.596;2022-10-16T08:36:21;2.90;;;2.20;;
3689;SDS011;1861;50.240;8.596;2022-10-16T08:38:50;3.17;;;1.70;;
3689;SDS011;1861;50.240;8.596;2022-10-16T08:41:22;3.43;;;2.23;;
3689;SDS011;1861;50.240;8.596;2022-10-16T08:44:11;1.70;;;1.50;;
3689;SDS011;1861;50.240;8.596;2022-10-16T08:46:49;3.33;;;2.17;;
3689;SDS011;1861;50.240;8.596;2022-10-16T08:49:27;2.40;;;2.20;;
3689;SDS011;1861;50.240;8.596;2022-10-16T08:51:56;3.03;;;2.20;;
3689;SDS011;1861;50.240;8.596;2022-10-16T08:54:28;3.90;;;2.27;;
3689;SDS011;1861;50.240;8.596;2022-10-16T08:57:00;3.00;;;2.70;;
3689;SDS011;1861;50.240;8.596;2022-10-16T08:59:36;3.70;;;2.47;;
3689;SDS011;1861;50.240;8.596;2022-10-16T09:02:08;4.90;;;1.87;;
3689;SDS011;1861;50.240;8.596;2022-10-16T09:04:50;3.07;;;2.30;;
3689;SDS011;1861;50.240;8.596;2022-10-16T09:07:28;3.53;;;1.97;;
3689;SDS011;1861;50.240;8.596;2022-10-16T09:10:05;3.70;;;2.07;;
3689;SDS011;1861;50.240;8.596;2022-10-16T09:12:43;7.63;;;2.20;;
3689;SDS011;1861;50.240;8.596;2022-10-16T09:15:22;2.43;;;2.20;;
3689;SDS011;1861;50.240;8.596;2022-10-16T09:17:58;12.93;;;2.30;;
3689;SDS011;1861;50.240;8.596;2022-10-16T09:20:33;5.87;;;2.20;;
3689;SDS011;1861;50.240;8.596;2022-10-16T09:23:15;4.40;;;2.30;;
3689;SDS011;1861;50.240;8.596;2022-10-16T09:25:46;3.93;;;3.10;;
3689;SDS011;1861;50.240;8.596;2022-10-16T09:28:17;5.83;;;2.80;;
3689;SDS011;1861;50.240;8.596;2022-10-16T09:30:46;4.93;;;2.60;;
3689;SDS011;1861;50.240;8.596;2022-10-16T09:33:17;3.30;;;2.90;;
3689;SDS011;1861;50.240;8.596;2022-10-16T09:35:47;3.17;;;2.67;;
3689;SDS011;1861;50.240;8.596;2022-10-16T09:38:22;2.87;;;2.50;;
3689;SDS011;1861;50.240;8.596;2022-10-16T09:40:52;6.20;;;2.80;;
3689;SDS011;1861;50.240;8.596;2022-10-16T09:43:30;2.70;;;2.50;;
3689;SDS011;1861;50.240;8.596;2022-10-16T09:46:03;3.90;;;2.90;;
3689;SDS011;1861;50.240;8.596;2022-10-16T09:48:34;3.73;;;2.77;;
3689;SDS011;1861;50.240;8.596;2022-10-16T09:51:05;3.87;;;3.00;;
3689;SDS011;1861;50.240;8.596;2022-10-16T09:53:39;4.27;;;2.60;;
3689;SDS011;1861;50.240;8.596;2022-10-16T09:56:09;2.87;;;2.50;;
3689;SDS011;1861;50.240;8.596;2022-10-16T09:58:42;21.60;;;9.40;;
3689;SDS011;1861;50.240;8.596;2022-10-16T10:01:16;5.67;;;2.80;;
3689;SDS011;1861;50.240;8.596;2022-10-16T10:03:44;4.33;;;3.10;;
3689;SDS011;1861;50.240;8.596;2022-10-16T10:06:16;3.53;;;3.17;;
3689;SDS011;1861;50.240;8.596;2022-10-16T10:09:01;3.47;;;2.63;;
3689;SDS011;1861;50.240;8.596;2022-10-16T10:11:39;5.43;;;2.60;;
3689;SDS011;1861;50.240;8.596;2022-10-16T10:14:22;10.93;;;2.83;;
3689;SDS011;1861;50.240;8.596;2022-10-16T10:17:02;3.23;;;2.93;;
3689;SDS011;1861;50.240;8.596;2022-10-16T10:19:40;3.47;;;2.57;;
3689;SDS011;1861;50.240;8.596;2022-10-16T10:22:16;3.43;;;2.50;;
3689;SDS011;1861;50.240;8.596;2022-10-16T10:25:24;9.23;;;3.17;;
3689;SDS011;1861;50.240;8.596;2022-10-16T10:28:14;3.00;;;2.53;;
3689;SDS011;1861;50.240;8.596;2022-10-16T10:30:49;2.87;;;2.67;;
3689;SDS011;1861;50.240;8.596;2022-10-16T10:33:27;4.43;;;3.10;;
3689;SDS011;1861;50.240;8.596;2022-10-16T10:36:05;4.57;;;2.60;;
3689;SDS011;1861;50.240;8.596;2022-10-16T10:38:46;4.87;;;2.67;;
3689;SDS011;1861;50.240;8.596;2022-10-16T10:44:18;2.27;;;2.07;;
3689;SDS011;1861;50.240;8.596;2022-10-16T10:47:00;2.97;;;2.67;;
3689;SDS011;1861;50.240;8.596;2022-10-16T10:49:43;8.50;;;3.13;;
3689;SDS011;1861;50.240;8.596;2022-10-16T10:52:29;2.80;;;2.47;;
3689;SDS011;1861;50.240;8.596;2022-10-16T10:55:09;2.43;;;2.23;;
3689;SDS011;1861;50.240;8.596;2022-10-16T10:57:48;3.20;;;2.60;;
3689;SDS011;1861;50.240;8.596;2022-10-16T11:00:33;4.30;;;2.77;;
3689;SDS011;1861;50.240;8.596;2022-10-16T11:03:13;4.03;;;2.87;;
3689;SDS011;1861;50.240;8.596;2022-10-16T11:05:56;4.70;;;2.53;;
3689;SDS011;1861;50.240;8.596;2022-10-16T11:08:32;4.70;;;2.70;;
3689;SDS011;1861;50.240;8.596;2022-10-16T11:11:04;3.17;;;2.13;;
3689;SDS011;1861;50.240;8.596;2022-10-16T11:13:39;4.00;;;3.20;;
3689;SDS011;1861;50.240;8.596;2022-10-16T11:16:13;3.50;;;2.47;;
3689;SDS011;1861;50.240;8.596;2022-10-16T11:18:48;2.50;;;2.20;;
3689;SDS011;1861;50.240;8.596;2022-10-16T11:21:22;2.80;;;2.50;;
3689;SDS011;1861;50.240;8.596;2022-10-16T11:23:57;3.13;;;1.70;;
3689;SDS011;1861;50.240;8.596;2022-10-16T11:26:30;1.93;;;1.80;;
3689;SDS011;1861;50.240;8.596;2022-10-16T11:29:04;2.20;;;1.67;;
3689;SDS011;1861;50.240;8.596;2022-10-16T11:31:40;3.33;;;2.27;;
3689;SDS011;1861;50.240;8.596;2022-10-16T11:34:12;4.63;;;2.40;;
3689;SDS011;1861;50.240;8.596;2022-10-16T11:36:49;2.40;;;2.20;;
3689;SDS011;1861;50.240;8.596;2022-10-16T11:39:24;2.10;;;1.60;;
3689;SDS011;1861;50.240;8.596;2022-10-16T11:41:55;2.00;;;1.83;;
3689;SDS011;1861;50.240;8.596;2022-10-16T11:44:36;2.03;;;1.93;;
3689;SDS011;1861;50.240;8.596;2022-10-16T11:47:14;3.50;;;1.77;;
3689;SDS011;1861;50.240;8.596;2022-10-16T11:50:13;3.77;;;2.00;;
3689;SDS011;1861;50.240;8.596;2022-10-16T11:52:51;3.60;;;2.00;;
3689;SDS011;1861;50.240;8.596;2022-10-16T11:55:26;3.97;;;2.00;;
3689;SDS011;1861;50.240;8.596;2022-10-16T11:57:59;2.30;;;2.10;;
3689;SDS011;1861;50.240;8.596;2022-10-16T12:00:33;2.00;;;1.83;;
3689;SDS011;1861;50.240;8.596;2022-10-16T12:03:10;4.37;;;1.67;;
3689;SDS011;1861;50.240;8.596;2022-10-16T12:05:52;4.70;;;1.73;;
3689;SDS011;1861;50.240;8.596;2022-10-16T12:08:28;2.00;;;1.70;;
3689;SDS011;1861;50.240;8.596;2022-10-16T12:11:05;1.70;;;1.60;;
3689;SDS011;1861;50.240;8.596;2022-10-16T12:13:35;2.37;;;2.00;;
3689;SDS011;1861;50.240;8.596;2022-10-16T12:16:07;1.80;;;1.70;;
3689;SDS011;1861;50.240;8.596;2022-10-16T12:18:48;2.10;;;1.93;;
3689;SDS011;1861;50.240;8.596;2022-10-16T12:21:29;2.20;;;1.73;;
3689;SDS011;1861;50.240;8.596;2022-10-16T12:23:59;3.30;;;1.50;;
3689;SDS011;1861;50.240;8.596;2022-10-16T12:26:30;2.07;;;1.50;;
3689;SDS011;1861;50.240;8.596;2022-10-16T12:29:10;4.90;;;2.23;;
3689;SDS011;1861;50.240;8.596;2022-10-16T12:31:45;4.33;;;2.00;;
3689;SDS011;1861;50.240;8.596;2022-10-16T12:34:24;4.00;;;2.13;;
3689;SDS011;1861;50.240;8.596;2022-10-16T12:36:54;2.23;;;2.03;;
3689;SDS011;1861;50.240;8.596;2022-10-16T12:39:24;4.20;;;2.20;;
3689;SDS011;1861;50.240;8.596;2022-10-16T12:42:01;5.97;;;2.50;;
3689;SDS011;1861;50.240;8.596;2022-10-16T12:44:34;5.33;;;2.27;;
3689;SDS011;1861;50.240;8.596;2022-10-16T12:47:04;2.40;;;2.20;;
3689;SDS011;1861;50.240;8.596;2022-10-16T12:49:35;2.00;;;1.90;;
3689;SDS011;1861;50.240;8.596;2022-10-16T12:54:56;1.97;;;1.77;;
3689;SDS011;1861;50.240;8.596;2022-10-16T12:57:29;3.07;;;1.80;;
3689;SDS011;1861;50.240;8.596;2022-10-16T13:00:09;2.73;;;1.80;;
3689;SDS011;1861;50.240;8.596;2022-10-16T13:02:52;2.33;;;2.00;;
3689;SDS011;1861;50.240;8.596;2022-10-16T13:05:46;1.97;;;1.77;;
3689;SDS011;1861;50.240;8.596;2022-10-16T13:08:31;2.37;;;1.50;;
3689;SDS011;1861;50.240;8.596;2022-10-16T13:11:12;1.83;;;1.73;;
3689;SDS011;1861;50.240;8.596;2022-10-16T13:16:42;2.50;;;1.87;;
3689;SDS011;1861;50.240;8.596;2022-10-16T13:19:24;6.53;;;3.00;;
3689;SDS011;1861;50.240;8.596;2022-10-16T13:22:02;2.80;;;2.20;;
3689;SDS011;1861;50.240;8.596;2022-10-16T13:24:39;10.43;;;2.70;;
3689;SDS011;1861;50.240;8.596;2022-10-16T13:27:18;2.60;;;1.43;;
3689;SDS011;1861;50.240;8.596;2022-10-16T13:30:00;3.67;;;2.17;;
3689;SDS011;1861;50.240;8.596;2022-10-16T13:32:36;2.47;;;1.83;;
3689;SDS011;1861;50.240;8.596;2022-10-16T13:35:18;11.23;;;5.40;;
3689;SDS011;1861;50.240;8.596;2022-10-16T13:37:48;10.17;;;3.80;;
3689;SDS011;1861;50.240;8.596;2022-10-16T13:40:20;2.00;;;1.70;;
3689;SDS011;1861;50.240;8.596;2022-10-16T13:42:50;5.60;;;3.20;;
3689;SDS011;1861;50.240;8.596;2022-10-16T13:45:20;2.20;;;1.50;;
3689;SDS011;1861;50.240;8.596;2022-10-16T13:48:00;1.83;;;1.23;;
3689;SDS011;1861;50.240;8.596;2022-10-16T13:50:30;1.90;;;1.77;;
3689;SDS011;1861;50.240;8.596;2022-10-16T13:53:05;1.63;;;1.53;;
3689;SDS011;1861;50.240;8.596;2022-10-16T13:55:34;2.60;;;1.60;;
3689;SDS011;1861;50.240;8.596;2022-10-16T13:58:08;3.70;;;1.57;;
3689;SDS011;1861;50.240;8.596;2022-10-16T14:00:39;2.30;;;1.83;;
3689;SDS011;1861;50.240;8.596;2022-10-16T14:03:20;1.60;;;1.50;;
3689;SDS011;1861;50.240;8.596;2022-10-16T14:05:50;3.17;;;1.37;;
3689;SDS011;1861;50.240;8.596;2022-10-16T14:08:21;1.37;;;1.27;;
3689;SDS011;1861;50.240;8.596;2022-10-16T14:10:51;1.50;;;1.40;;
3689;SDS011;1861;50.240;8.596;2022-10-16T14:13:24;1.57;;;1.23;;
3689;SDS011;1861;50.240;8.596;2022-10-16T14:15:57;3.63;;;1.70;;
3689;SDS011;1861;50.240;8.596;2022-10-16T14:18:28;2.80;;;1.30;;
3689;SDS011;1861;50.240;8.596;2022-10-16T14:21:06;1.30;;;1.20;;
3689;SDS011;1861;50.240;8.596;2022-10-16T14:23:39;4.77;;;1.97;;
3689;SDS011;1861;50.240;8.596;2022-10-16T14:26:12;5.37;;;1.80;;
3689;SDS011;1861;50.240;8.596;2022-10-16T14:28:46;1.40;;;1.30;;
3689;SDS011;1861;50.240;8.596;2022-10-16T14:31:27;4.73;;;1.80;;
3689;SDS011;1861;50.240;8.596;2022-10-16T14:33:57;1.37;;;1.23;;
3689;SDS011;1861;50.240;8.596;2022-10-16T14:36:27;2.03;;;1.50;;
3689;SDS011;1861;50.240;8.596;2022-10-16T14:38:58;3.13;;;1.60;;
3689;SDS011;1861;50.240;8.596;2022-10-16T14:41:29;3.40;;;2.13;;
3689;SDS011;1861;50.240;8.596;2022-10-16T14:44:00;2.23;;;2.03;;
3689;SDS011;1861;50.240;8.596;2022-10-16T14:46:32;1.80;;;1.67;;
3689;SDS011;1861;50.240;8.596;2022-10-16T14:49:04;1.63;;;1.50;;
3689;SDS011;1861;50.240;8.596;2022-10-16T14:51:44;1.87;;;1.50;;
3689;SDS011;1861;50.240;8.596;2022-10-16T14:54:12;5.20;;;1.37;;
3689;SDS011;1861;50.240;8.596;2022-10-16T14:56:43;3.10;;;2.10;;
3689;SDS011;1861;50.240;8.596;2022-10-16T14:59:15;2.67;;;1.67;;
3689;SDS011;1861;50.240;8.596;2022-10-16T15:01:46;5.13;;;1.77;;
3689;SDS011;1861;50.240;8.596;2022-10-16T15:04:14;3.00;;;1.53;;
3689;SDS011;1861;50.240;8.596;2022-10-16T15:06:45;1.60;;;1.43;;
3689;SDS011;1861;50.240;8.596;2022-10-16T15:09:13;12.27;;;4.60;;
3689;SDS011;1861;50.240;8.596;2022-10-16T15:11:41;1.80;;;1.67;;
3689;SDS011;1861;50.240;8.596;2022-10-16T15:14:22;1.70;;;1.60;;
3689;SDS011;1861;50.240;8.596;2022-10-16T15:16:50;4.67;;;1.73;;
3689;SDS011;1861;50.240;8.596;2022-10-16T15:19:18;3.83;;;1.50;;
3689;SDS011;1861;50.240;8.596;2022-10-16T15:21:48;1.67;;;1.57;;
3689;SDS011;1861;50.240;8.596;2022-10-16T15:24:17;1.83;;;1.57;;
3689;SDS011;1861;50.240;8.596;2022-10-16T15:26:47;1.70;;;1.60;;
3689;SDS011;1861;50.240;8.596;2022-10-16T15:29:15;2.50;;;2.10;;
3689;SDS011;1861;50.240;8.596;2022-10-16T15:31:43;3.23;;;2.30;;
3689;SDS011;1861;50.240;8.596;2022-10-16T15:34:13;1.77;;;1.67;;
3689;SDS011;1861;50.240;8.596;2022-10-16T15:36:42;2.03;;;1.73;;
3689;SDS011;1861;50.240;8.596;2022-10-16T15:39:12;2.47;;;2.03;;
3689;SDS011;1861;50.240;8.596;2022-10-16T15:41:42;3.30;;;2.23;;
3689;SDS011;1861;50.240;8.596;2022-10-16T15:44:11;3.97;;;2.20;;
3689;SDS011;1861;50.240;8.596;2022-10-16T15:46:39;12.13;;;4.50;;
3689;SDS011;1861;50.240;8.596;2022-10-16T15:49:07;5.07;;;3.30;;
3689;SDS011;1861;50.240;8.596;2022-10-16T15:51:37;4.43;;;2.73;;
3689;SDS011;1861;50.240;8.596;2022-10-16T15:54:06;6.07;;;3.00;;